Time;durP1;ratioP1;P1;durP2;ratioP2;P2;SDS_P1;SDS_P2;PMS_P1;PMS_P2;Temp;Humidity;BMP_temperature;BMP_pressure;BME280_temperature;BME280_humidity;BME280_pressure;Samples;Min_cycle;Max_cycle;Signal;HPM_P1;HPM_P2
2023/07/13 00:08:37;;;;;;;11.30;2.63;;;18.10;1.00;;;;;;20902261;28;20037;-90
2023/07/13 00:19:00;;;;;;;8.68;2.60;;;18.00;1.00;;;;;;20890539;28;20040;-86
2023/07/13 00:29:21;;;;;;;9.85;1.98;;;17.80;1.00;;;;;;20890675;28;20455;-87
2023/07/13 00:39:43;;;;;;;9.85;1.92;;;17.90;1.00;;;;;;20881355;28;20059;-89
2023/07/13 00:50:10;;;;;;;7.20;2.30;;;17.60;1.00;;;;;;20887131;28;20029;-88
2023/07/13 01:00:31;;;;;;;9.32;2.10;;;17.60;1.00;;;;;;20893076;28;20041;-89
2023/07/13 01:10:54;;;;;;;10.18;2.00;;;17.60;1.00;;;;;;20908943;28;20104;-88
2023/07/13 01:21:17;;;;;;;9.52;2.03;;;17.50;1.00;;;;;;20903114;28;20420;-87
2023/07/13 01:31:38;;;;;;;10.77;2.13;;;17.60;1.00;;;;;;20912920;28;20045;-91
2023/07/13 01:42:01;;;;;;;9.93;2.78;;;17.50;1.00;;;;;;20905884;28;20033;-88
2023/07/13 01:52:22;;;;;;;11.77;2.83;;;17.40;1.00;;;;;;20897615;28;20044;-88
2023/07/13 02:02:44;;;;;;;8.45;2.60;;;17.40;1.00;;;;;;20875155;28;20166;-89
2023/07/13 02:13:06;;;;;;;7.72;2.50;;;17.40;1.00;;;;;;20900273;28;20044;-88
2023/07/13 02:23:28;;;;;;;10.15;2.33;;;17.30;1.00;;;;;;20906503;28;20075;-88
2023/07/13 02:33:49;;;;;;;7.05;2.70;;;17.20;1.00;;;;;;20898528;28;20044;-92
2023/07/13 02:44:13;;;;;;;11.95;2.40;;;17.10;1.00;;;;;;20893185;28;20416;-91
2023/07/13 02:54:35;;;;;;;7.68;2.35;;;16.90;1.00;;;;;;20908136;28;20504;-91
2023/07/13 03:04:56;;;;;;;7.88;2.45;;;16.90;1.00;;;;;;20917054;28;20480;-90
2023/07/13 03:15:18;;;;;;;7.63;2.60;;;16.70;1.00;;;;;;20855037;28;20408;-91
2023/07/13 03:25:39;;;;;;;9.02;3.30;;;16.80;1.00;;;;;;20905604;28;20106;-91
2023/07/13 03:36:01;;;;;;;9.23;2.80;;;16.60;1.60;;;;;;20903707;28;20408;-91
2023/07/13 03:46:23;;;;;;;8.48;2.55;;;16.50;1.00;;;;;;20901249;28;20040;-86
2023/07/13 03:56:44;;;;;;;11.45;3.08;;;16.50;1.00;;;;;;20912620;28;20465;-88
2023/07/13 04:07:07;;;;;;;8.90;2.45;;;16.60;1.00;;;;;;20897065;28;20404;-88
2023/07/13 04:17:42;;;;;;;13.20;3.13;;;16.40;3.40;;;;;;20891660;27;20660;-44
2023/07/13 04:28:04;;;;;;;13.90;3.35;;;16.50;12.50;;;;;;20880132;28;20043;-45
2023/07/13 04:38:30;;;;;;;9.80;3.58;;;16.50;20.60;;;;;;20886346;28;20067;-44
2023/07/13 04:48:53;;;;;;;12.68;4.60;;;16.50;24.70;;;;;;20867870;28;20036;-44
2023/07/13 04:59:14;;;;;;;14.02;3.83;;;16.60;37.20;;;;;;20888520;28;20223;-44
2023/07/13 05:09:36;;;;;;;14.63;4.53;;;16.60;51.90;;;;;;20869985;28;20080;-44
2023/07/13 05:19:57;;;;;;;13.63;5.10;;;16.90;35.40;;;;;;20876647;28;20064;-44
2023/07/13 05:30:18;;;;;;;16.33;5.60;;;17.00;48.60;;;;;;20818290;28;20043;-45
2023/07/13 05:40:43;;;;;;;13.23;4.68;;;17.20;56.20;;;;;;20809715;28;20129;-44
2023/07/13 05:51:04;;;;;;;13.55;4.95;;;17.50;27.00;;;;;;20806601;28;20068;-42
2023/07/13 06:01:25;;;;;;;16.67;5.32;;;17.60;25.00;;;;;;20808572;28;20056;-42
2023/07/13 06:11:47;;;;;;;14.52;5.72;;;17.70;23.60;;;;;;20813848;28;20135;-42
2023/07/13 06:22:08;;;;;;;16.88;5.60;;;18.00;24.10;;;;;;20835572;28;20168;-42
2023/07/13 06:32:29;;;;;;;15.82;5.20;;;18.30;1.00;;;;;;20823387;28;20118;-43
2023/07/13 06:42:51;;;;;;;17.88;6.78;;;18.60;1.00;;;;;;20805963;28;20244;-43
2023/07/13 06:53:12;;;;;;;16.00;6.38;;;18.80;3.40;;;;;;20811226;28;20033;-43
2023/07/13 07:03:34;;;;;;;7.28;3.17;;;18.20;27.40;;;;;;20816264;28;20412;-43
2023/07/13 07:13:55;;;;;;;12.07;3.20;;;17.30;1.00;;;;;;20803905;28;20110;-42
2023/07/13 07:24:17;;;;;;;8.38;3.53;;;16.10;55.70;;;;;;20821721;28;20056;-42
2023/07/13 07:34:38;;;;;;;11.07;5.05;;;15.90;99.90;;;;;;20822070;28;20423;-42
2023/07/13 07:45:00;;;;;;;12.45;6.05;;;16.40;99.90;;;;;;20826408;28;20078;-42
2023/07/13 07:55:22;;;;;;;16.63;7.90;;;16.90;99.90;;;;;;20824419;28;20243;-42
2023/07/13 08:05:44;;;;;;;13.00;6.65;;;17.20;99.90;;;;;;20831607;28;20064;-42
2023/07/13 08:16:06;;;;;;;17.30;9.15;;;17.30;99.90;;;;;;20817503;28;20120;-43
2023/07/13 08:26:27;;;;;;;9.30;5.10;;;17.60;99.90;;;;;;20818442;28;20043;-42
2023/07/13 08:36:48;;;;;;;6.60;3.53;;;17.10;99.90;;;;;;20828103;28;21156;-43
2023/07/13 08:47:13;;;;;;;5.82;2.65;;;16.50;99.90;;;;;;20818595;28;20088;-43
2023/07/13 08:57:35;;;;;;;10.90;3.90;;;15.80;99.90;;;;;;20815069;28;20068;-43
2023/07/13 09:08:15;;;;;;;6.70;4.05;;;15.90;99.90;;;;;;20829303;28;20045;-42
2023/07/13 09:18:40;;;;;;;9.95;5.25;;;16.10;99.90;;;;;;20842538;28;20056;-42
2023/07/13 09:29:26;;;;;;;12.05;5.90;;;16.50;99.90;;;;;;20830093;28;20663;-43
2023/07/13 09:39:51;;;;;;;10.90;6.18;;;16.60;99.90;;;;;;20821493;28;20404;-43
2023/07/13 09:50:16;;;;;;;15.80;6.40;;;17.40;99.90;;;;;;20820950;28;20432;-43
2023/07/13 10:00:39;;;;;;;9.52;5.00;;;17.50;99.90;;;;;;20831840;28;20040;-43
2023/07/13 10:11:11;;;;;;;9.70;5.55;;;17.50;99.90;;;;;;20815859;28;20064;-43
2023/07/13 10:21:42;;;;;;;9.57;4.75;;;17.50;99.90;;;;;;20811302;28;20037;-43
2023/07/13 10:32:11;;;;;;;7.55;4.82;;;18.30;99.90;;;;;;20811309;28;20041;-43
2023/07/13 10:42:38;;;;;;;6.35;3.40;;;19.20;91.50;;;;;;20803967;28;20041;-43
2023/07/13 10:53:18;;;;;;;7.40;3.72;;;19.00;68.10;;;;;;20792796;28;20099;-43
2023/07/13 11:03:56;;;;;;;7.78;3.05;;;19.50;17.40;;;;;;20804890;28;20155;-43
2023/07/13 11:14:53;;;;;;;6.60;3.97;;;19.50;1.00;;;;;;20798976;28;20297;-42
2023/07/13 11:25:26;;;;;;;9.20;4.97;;;18.10;12.40;;;;;;20815521;28;20071;-43
2023/07/13 11:35:57;;;;;;;7.40;4.18;;;17.80;99.90;;;;;;20817984;28;20056;-42
2023/07/13 11:46:24;;;;;;;7.30;3.42;;;18.30;99.90;;;;;;20809696;28;20234;-42
2023/07/13 11:56:46;;;;;;;5.45;3.45;;;18.40;1.00;;;;;;20803353;28;20040;-42
2023/07/13 12:07:15;;;;;;;4.65;2.50;;;18.30;1.00;;;;;;20796761;28;20235;-43
2023/07/13 12:17:36;;;;;;;6.15;2.78;;;18.30;1.00;;;;;;20819279;28;20092;-43
2023/07/13 12:27:58;;;;;;;6.28;3.00;;;18.80;1.00;;;;;;20814046;28;20192;-43
2023/07/13 12:38:22;;;;;;;5.40;2.38;;;19.70;1.00;;;;;;20845245;28;20060;-43
2023/07/13 12:48:45;;;;;;;6.97;3.08;;;20.60;1.00;;;;;;20830705;28;20069;-43
2023/07/13 12:59:17;;;;;;;7.07;2.85;;;20.40;1.00;;;;;;20840245;28;20646;-43
2023/07/13 13:09:38;;;;;;;6.95;2.95;;;20.40;1.00;;;;;;20832088;28;20103;-43
2023/07/13 13:19:59;;;;;;;6.63;2.75;;;21.10;1.00;;;;;;20829235;28;20511;-43
2023/07/13 13:30:21;;;;;;;5.20;2.28;;;21.40;1.00;;;;;;20838230;28;20253;-43
2023/07/13 13:40:45;;;;;;;6.30;2.15;;;21.80;1.00;;;;;;20818082;28;20450;-43
2023/07/13 13:51:16;;;;;;;4.97;2.05;;;22.10;1.00;;;;;;20813755;28;20037;-43
2023/07/13 14:01:38;;;;;;;5.30;2.47;;;22.20;1.00;;;;;;20822633;28;20520;-43
2023/07/13 14:11:59;;;;;;;4.07;1.90;;;22.00;1.00;;;;;;20770145;28;20478;-43
2023/07/13 14:22:21;;;;;;;4.93;1.85;;;22.00;1.00;;;;;;20816952;28;20127;-43
2023/07/13 14:32:44;;;;;;;2.53;1.63;;;21.90;1.00;;;;;;20834042;28;20084;-43
2023/07/13 14:43:10;;;;;;;4.50;1.85;;;22.10;1.00;;;;;;20835390;28;20524;-43
2023/07/13 14:53:31;;;;;;;5.35;1.33;;;22.10;1.00;;;;;;20825389;28;20037;-43
2023/07/13 15:03:53;;;;;;;6.40;1.40;;;22.20;1.00;;;;;;20826909;28;20228;-42
2023/07/13 15:14:14;;;;;;;4.78;1.40;;;22.10;1.00;;;;;;20817121;28;20124;-42
2023/07/13 15:24:37;;;;;;;4.47;1.17;;;22.30;1.00;;;;;;20817535;28;20532;-43
2023/07/13 15:34:58;;;;;;;4.38;1.33;;;22.20;1.00;;;;;;20804813;28;20081;-42
2023/07/13 15:45:22;;;;;;;5.20;1.60;;;22.20;1.00;;;;;;20802556;28;20056;-42
2023/07/13 15:55:44;;;;;;;4.00;1.42;;;22.10;1.00;;;;;;20818971;28;20041;-43
2023/07/13 16:06:22;;;;;;;3.83;1.38;;;22.10;1.00;;;;;;20806516;28;20040;-42
2023/07/13 16:16:45;;;;;;;3.88;1.30;;;21.70;1.00;;;;;;20807872;28;20786;-43
2023/07/13 16:27:09;;;;;;;3.75;1.55;;;21.60;1.00;;;;;;20801383;28;21524;-43
2023/07/13 16:37:30;;;;;;;4.15;1.52;;;21.60;1.00;;;;;;20812880;28;20068;-43
2023/07/13 16:47:53;;;;;;;4.05;1.23;;;21.60;1.00;;;;;;20784718;28;20061;-43
2023/07/13 16:58:15;;;;;;;3.55;1.30;;;21.50;1.00;;;;;;20775766;28;20427;-43
2023/07/13 17:08:36;;;;;;;5.35;1.75;;;21.40;1.00;;;;;;20782768;28;20491;-43
2023/07/13 17:18:58;;;;;;;2.35;1.33;;;21.40;1.00;;;;;;20774038;28;20120;-43
2023/07/13 17:29:20;;;;;;;3.47;1.85;;;21.10;1.00;;;;;;20789729;28;20115;-43
2023/07/13 17:39:42;;;;;;;3.53;1.60;;;21.10;1.00;;;;;;20810291;28;20117;-43
2023/07/13 17:50:14;;;;;;;4.03;1.58;;;20.90;1.00;;;;;;20787731;28;20069;-43
2023/07/13 18:00:40;;;;;;;4.00;2.03;;;20.70;1.00;;;;;;20791086;28;20113;-43
2023/07/13 18:11:02;;;;;;;3.30;1.30;;;20.70;1.00;;;;;;20786839;28;20075;-43
2023/07/13 18:21:25;;;;;;;4.68;1.30;;;20.70;1.00;;;;;;20793041;28;20072;-43
2023/07/13 18:31:48;;;;;;;2.42;1.50;;;20.50;1.00;;;;;;20792859;28;20537;-43
2023/07/13 18:42:10;;;;;;;4.82;1.38;;;20.30;1.00;;;;;;20779140;28;20060;-43
2023/07/13 18:52:31;;;;;;;3.38;1.30;;;20.00;1.00;;;;;;20789085;28;20849;-43
2023/07/13 19:02:53;;;;;;;5.68;1.70;;;19.80;1.00;;;;;;20792684;28;20120;-43
2023/07/13 19:13:23;;;;;;;5.07;1.73;;;19.60;1.00;;;;;;20800541;28;20594;-43
2023/07/13 19:23:46;;;;;;;4.93;1.73;;;19.50;1.00;;;;;;20800353;28;20080;-43
2023/07/13 19:34:11;;;;;;;6.85;1.55;;;19.30;1.00;;;;;;20788861;28;20502;-43
2023/07/13 19:44:32;;;;;;;3.95;1.35;;;19.20;1.00;;;;;;20784562;28;20304;-43
2023/07/13 19:54:57;;;;;;;4.05;1.65;;;19.10;1.00;;;;;;20789758;28;20515;-43
2023/07/13 20:05:21;;;;;;;3.63;1.58;;;18.90;1.00;;;;;;20775432;28;20080;-43
2023/07/13 20:15:43;;;;;;;5.03;1.70;;;18.60;1.00;;;;;;20786252;28;20077;-43
2023/07/13 20:26:04;;;;;;;9.45;3.50;;;18.40;1.00;;;;;;20772738;28;20144;-43
2023/07/13 20:36:26;;;;;;;6.60;1.88;;;18.20;1.00;;;;;;20798870;28;20717;-43
2023/07/13 20:46:47;;;;;;;2.45;1.50;;;18.10;1.00;;;;;;20793451;28;20080;-43
2023/07/13 20:57:09;;;;;;;5.55;1.65;;;18.00;1.00;;;;;;20809042;28;20116;-43
2023/07/13 21:07:31;;;;;;;5.95;1.88;;;18.00;1.00;;;;;;20800602;28;20120;-43
2023/07/13 21:17:56;;;;;;;4.10;1.65;;;17.90;1.00;;;;;;20827366;28;20064;-43
2023/07/13 21:28:17;;;;;;;4.72;1.52;;;17.80;1.00;;;;;;20797486;28;20411;-43
2023/07/13 21:38:41;;;;;;;3.97;1.50;;;17.70;1.00;;;;;;20806270;28;20120;-43
2023/07/13 21:49:03;;;;;;;6.60;1.92;;;17.60;1.00;;;;;;20803885;28;20128;-43
2023/07/13 21:59:26;;;;;;;5.03;1.40;;;17.60;1.00;;;;;;20799855;28;20771;-43
2023/07/13 22:09:47;;;;;;;3.80;1.50;;;17.50;1.00;;;;;;20801102;28;20057;-43
2023/07/13 22:20:18;;;;;;;3.25;1.40;;;17.40;1.00;;;;;;20796827;28;20068;-43
2023/07/13 22:30:39;;;;;;;3.72;1.65;;;17.10;1.00;;;;;;20798922;28;20550;-43
2023/07/13 22:41:01;;;;;;;3.42;1.77;;;16.90;1.00;;;;;;20804314;28;20059;-42
2023/07/13 22:51:25;;;;;;;5.32;2.33;;;17.00;1.00;;;;;;20800466;28;20128;-43
2023/07/13 23:01:46;;;;;;;5.00;2.50;;;17.00;1.00;;;;;;20798556;28;20057;-43
2023/07/13 23:12:09;;;;;;;4.05;1.75;;;17.00;1.00;;;;;;20787147;28;20151;-43
2023/07/13 23:22:31;;;;;;;3.80;2.10;;;17.00;1.00;;;;;;20810404;28;20032;-43
2023/07/13 23:33:13;;;;;;;4.28;2.15;;;16.80;1.00;;;;;;20798317;28;20061;-42
2023/07/13 23:43:35;;;;;;;5.85;2.13;;;16.80;1.00;;;;;;20792394;28;20071;-43
2023/07/13 23:53:57;;;;;;;4.40;2.03;;;16.90;1.00;;;;;;20801676;28;20083;-43
